createdAt,value
2019-04-05T00:01:33.190Z,6.40
2019-04-05T00:04:02.745Z,6.40
2019-04-05T00:06:32.628Z,6.40
2019-04-05T00:09:02.176Z,6.40
2019-04-05T00:11:31.824Z,6.30
2019-04-05T00:14:01.728Z,6.40
2019-04-05T00:16:31.344Z,6.30
2019-04-05T00:19:00.880Z,6.30
2019-04-05T00:21:30.448Z,6.40
2019-04-05T00:24:00.261Z,6.40
2019-04-05T00:26:29.811Z,6.40
2019-04-05T00:28:59.366Z,6.30
2019-04-05T00:31:29.173Z,6.30
2019-04-05T00:33:58.761Z,6.30
2019-04-05T00:36:28.316Z,6.30
2019-04-05T00:38:57.852Z,6.20
2019-04-05T00:41:27.396Z,6.20
2019-04-05T00:44:20.188Z,6.00
2019-04-05T00:46:50.063Z,6.00
2019-04-05T00:49:19.609Z,6.00
2019-04-05T00:51:49.314Z,6.00
2019-04-05T00:54:19.116Z,6.00
2019-04-05T00:56:48.745Z,6.10
2019-04-05T00:59:18.456Z,6.20
2019-04-05T01:01:48.153Z,6.20
2019-04-05T01:04:17.683Z,6.20
2019-04-05T01:06:47.629Z,6.20
2019-04-05T01:09:17.200Z,6.20
2019-04-05T01:11:46.825Z,6.10
2019-04-05T01:14:16.980Z,6.10
2019-04-05T01:16:47.317Z,6.20
2019-04-05T01:19:17.040Z,6.20
2019-04-05T01:21:48.468Z,6.20
2019-04-05T01:24:20.200Z,6.10
2019-04-05T01:26:50.391Z,6.00
2019-04-05T01:29:20.584Z,6.00
2019-04-05T01:31:50.288Z,5.90
2019-04-05T01:34:20.268Z,6.00
2019-04-05T01:36:50.492Z,5.90
2019-04-05T01:39:20.052Z,5.90
2019-04-05T01:41:50.314Z,5.90
2019-04-05T01:44:20.213Z,5.90
2019-04-05T01:46:49.879Z,5.80
2019-04-05T01:49:19.741Z,5.80
2019-04-05T01:51:49.864Z,5.70
2019-04-05T01:54:19.804Z,5.80
2019-04-05T01:56:49.684Z,5.80
2019-04-05T01:59:29.568Z,5.80
2019-04-05T02:01:59.112Z,5.80
2019-04-05T02:04:28.888Z,5.80
2019-04-05T02:06:58.788Z,5.80
2019-04-05T02:09:28.482Z,5.80
2019-04-05T02:11:58.182Z,5.70
2019-04-05T02:14:27.875Z,5.80
2019-04-05T02:16:57.436Z,5.80
2019-04-05T02:19:27.071Z,5.80
2019-04-05T02:21:56.757Z,5.80
2019-04-05T02:24:26.450Z,5.80
2019-04-05T02:26:56.640Z,5.80
2019-04-05T02:29:26.325Z,5.90
2019-04-05T02:31:56.020Z,5.90
2019-04-05T02:34:25.954Z,5.90
2019-04-05T02:36:55.570Z,6.00
2019-04-05T02:39:25.671Z,6.10
2019-04-05T02:41:57.554Z,6.00
2019-04-05T02:44:27.549Z,6.00
2019-04-05T02:46:57.554Z,6.00
2019-04-05T02:49:30.239Z,5.90
2019-04-05T02:52:02.789Z,5.90
2019-04-05T02:54:34.389Z,5.80
2019-04-05T02:57:04.474Z,5.80
2019-04-05T02:59:35.409Z,5.80
2019-04-05T03:02:06.317Z,5.80
2019-04-05T03:04:36.008Z,5.80
2019-04-05T03:07:06.653Z,5.80
2019-04-05T03:09:36.944Z,5.80
2019-04-05T03:12:07.094Z,5.90
2019-04-05T03:14:37.513Z,5.90
2019-04-05T03:17:08.321Z,6.00
2019-04-05T03:19:39.262Z,6.10
2019-04-05T03:22:31.782Z,6.20
2019-04-05T03:25:01.768Z,6.20
2019-04-05T03:27:34.404Z,6.20
2019-04-05T03:30:05.277Z,6.20
2019-04-05T03:32:35.301Z,6.10
2019-04-05T03:35:05.688Z,6.00
2019-04-05T03:37:35.310Z,6.00
2019-04-05T03:40:05.610Z,6.00
2019-04-05T03:42:35.694Z,5.90
2019-04-05T03:45:06.168Z,5.90
2019-04-05T03:47:35.705Z,5.90
2019-04-05T03:50:05.666Z,6.00
2019-04-05T03:52:35.577Z,6.00
2019-04-05T03:55:05.451Z,6.00
2019-04-05T03:57:35.843Z,6.10
2019-04-05T04:00:06.377Z,6.10
2019-04-05T04:02:36.012Z,6.10
2019-04-05T04:05:06.049Z,6.10
2019-04-05T04:07:35.764Z,6.10
2019-04-05T04:10:06.255Z,6.10
2019-04-05T04:12:36.277Z,6.10
2019-04-05T04:15:15.320Z,6.20
2019-04-05T04:17:45.921Z,6.20
2019-04-05T04:20:42.468Z,6.30
2019-04-05T04:23:13.490Z,6.20
2019-04-05T04:25:43.778Z,6.30
2019-04-05T04:28:14.105Z,6.30
2019-04-05T04:30:43.784Z,6.30
2019-04-05T04:33:13.608Z,6.40
2019-04-05T04:35:43.312Z,6.40
2019-04-05T04:38:13.028Z,6.40
2019-04-05T04:40:43.144Z,6.30
2019-04-05T04:43:13.251Z,6.20
2019-04-05T04:45:44.044Z,6.10
2019-04-05T04:48:13.747Z,6.10
2019-04-05T04:50:43.644Z,6.10
2019-04-05T04:53:13.539Z,6.10
2019-04-05T04:55:43.460Z,6.10
2019-04-05T04:58:13.151Z,6.20
2019-04-05T05:00:42.870Z,6.10
2019-04-05T05:03:12.556Z,6.20
2019-04-05T05:05:42.785Z,6.20
2019-04-05T05:08:12.693Z,6.20
2019-04-05T05:10:42.508Z,6.20
2019-04-05T05:13:12.638Z,6.20
2019-04-05T05:15:42.432Z,6.20
2019-04-05T05:18:12.224Z,6.20
2019-04-05T05:20:43.029Z,6.20
2019-04-05T05:23:12.808Z,6.20
2019-04-05T05:25:43.277Z,6.20
2019-04-05T05:28:12.964Z,6.20
2019-04-05T05:30:42.774Z,6.10
2019-04-05T05:33:13.005Z,6.20
2019-04-05T05:35:42.692Z,6.20
2019-04-05T05:38:12.375Z,6.10
2019-04-05T05:40:42.325Z,6.00
2019-04-05T05:43:11.870Z,6.10
2019-04-05T05:45:41.480Z,6.10
2019-04-05T05:48:11.277Z,6.10
2019-04-05T05:50:41.397Z,6.10
2019-04-05T05:53:25.537Z,6.10
2019-04-05T05:55:55.101Z,6.10
2019-04-05T05:58:25.758Z,6.10
2019-04-05T06:00:56.457Z,6.10
2019-04-05T06:03:26.405Z,6.10
2019-04-05T06:06:04.323Z,6.10
2019-04-05T06:08:29.334Z,6.00
2019-04-05T06:11:11.937Z,6.00
2019-04-05T06:13:42.104Z,6.00
2019-04-05T06:16:12.014Z,6.00
2019-04-05T06:18:42.555Z,6.00
2019-04-05T06:21:24.587Z,6.10
2019-04-05T06:24:05.067Z,6.10
2019-04-05T06:26:49.204Z,6.20
2019-04-05T06:29:18.739Z,6.20
2019-04-05T06:31:48.564Z,6.20
2019-04-05T06:34:18.381Z,6.20
2019-04-05T06:36:51.082Z,6.20
2019-04-05T06:40:03.877Z,6.20
2019-04-05T06:42:33.584Z,6.10
2019-04-05T06:45:03.808Z,6.10
2019-04-05T06:47:33.400Z,6.10
2019-04-05T06:50:03.168Z,6.00
2019-04-05T06:52:33.477Z,6.10
2019-04-05T06:55:37.784Z,6.10
2019-04-05T06:58:10.239Z,6.10
2019-04-05T07:00:56.362Z,6.10
2019-04-05T07:03:27.980Z,6.10
2019-04-05T07:05:57.896Z,6.20
2019-04-05T07:08:27.704Z,6.20
2019-04-05T07:10:57.245Z,6.20
2019-04-05T07:13:27.560Z,6.20
2019-04-05T07:15:57.652Z,6.30
2019-04-05T07:18:35.616Z,6.30
2019-04-05T07:21:05.245Z,6.40
2019-04-05T07:23:34.789Z,6.30
2019-04-05T07:26:04.713Z,6.30
2019-04-05T07:28:34.342Z,6.30
2019-04-05T07:31:03.887Z,6.30
2019-04-05T07:33:33.700Z,6.30
2019-04-05T07:36:22.256Z,6.30
2019-04-05T07:38:52.203Z,6.40
2019-04-05T07:41:22.041Z,6.30
2019-04-05T07:43:51.985Z,6.30
2019-04-05T07:46:22.415Z,6.40
2019-04-05T07:48:52.738Z,6.40
2019-04-05T07:51:22.815Z,6.30
2019-04-05T07:53:52.527Z,6.30
2019-04-05T07:56:22.136Z,6.30
2019-04-05T07:58:51.701Z,6.40
2019-04-05T08:01:21.250Z,6.50
2019-04-05T08:03:51.093Z,6.50
2019-04-05T08:06:20.801Z,6.50
2019-04-05T08:09:09.252Z,6.60
2019-04-05T08:11:40.290Z,6.60
2019-04-05T08:14:11.541Z,6.70
2019-04-05T08:16:50.865Z,6.70
2019-04-05T08:19:20.496Z,6.70
2019-04-05T08:21:50.500Z,6.70
2019-04-05T08:24:20.041Z,6.70
2019-04-05T08:26:49.904Z,6.80
2019-04-05T08:29:38.025Z,6.80
2019-04-05T08:32:14.461Z,6.90
2019-04-05T08:34:39.311Z,6.90
2019-04-05T08:37:08.843Z,6.90
2019-04-05T08:39:38.720Z,6.90
2019-04-05T08:42:10.822Z,6.90
2019-04-05T08:44:40.196Z,6.90
2019-04-05T08:47:09.736Z,6.90
2019-04-05T08:49:39.368Z,7.00
2019-04-05T08:52:09.141Z,6.90
2019-04-05T08:54:38.699Z,6.90
2019-04-05T08:57:08.242Z,7.00
2019-04-05T08:59:38.441Z,7.00
2019-04-05T09:02:08.257Z,7.10
2019-04-05T09:04:42.673Z,7.10
2019-04-05T09:07:12.237Z,7.20
2019-04-05T09:09:42.189Z,7.20
2019-04-05T09:12:11.808Z,7.20
2019-04-05T09:14:41.585Z,7.20
2019-04-05T09:17:52.460Z,7.20
2019-04-05T09:20:22.002Z,7.20
2019-04-05T09:22:51.797Z,7.20
2019-04-05T09:25:21.361Z,7.20
2019-04-05T09:27:50.900Z,7.10
2019-04-05T09:30:22.061Z,7.10
2019-04-05T09:32:51.620Z,7.10
2019-04-05T09:35:21.572Z,7.10
2019-04-05T09:37:51.111Z,7.20
2019-04-05T09:40:21.335Z,7.30
2019-04-05T09:42:51.050Z,7.30
2019-04-05T09:45:20.713Z,7.40
2019-04-05T09:47:50.273Z,7.40
2019-04-05T09:50:19.916Z,7.40
2019-04-05T09:52:49.466Z,7.40
2019-04-05T09:55:19.244Z,7.50
2019-04-05T09:57:57.553Z,7.50
2019-04-05T10:00:28.023Z,7.50
2019-04-05T10:02:58.006Z,7.60
2019-04-05T10:05:27.815Z,7.60
2019-04-05T10:07:57.807Z,7.60
2019-04-05T10:10:28.067Z,7.70
2019-04-05T10:13:03.984Z,7.70
2019-04-05T10:15:33.817Z,7.80
2019-04-05T10:18:03.429Z,7.80
2019-04-05T10:20:33.223Z,7.80
2019-04-05T10:23:03.445Z,7.80
2019-04-05T10:25:33.258Z,7.90
2019-04-05T10:28:03.191Z,7.90
2019-04-05T10:30:33.087Z,7.90
2019-04-05T10:33:02.630Z,7.90
2019-04-05T10:35:32.420Z,7.90
2019-04-05T10:38:01.966Z,8.00
2019-04-05T10:40:31.509Z,8.00
2019-04-05T10:43:01.073Z,8.00
2019-04-05T10:45:31.348Z,8.10
2019-04-05T10:48:00.892Z,8.20
2019-04-05T10:50:30.441Z,8.30
2019-04-05T10:53:00.672Z,8.30
2019-04-05T10:55:30.228Z,8.30
2019-04-05T10:58:00.403Z,8.30
2019-04-05T11:00:30.709Z,8.30
2019-04-05T11:03:00.253Z,8.30
2019-04-05T11:05:30.104Z,8.30
2019-04-05T11:07:59.656Z,8.30
2019-04-05T11:10:29.273Z,8.40
2019-04-05T11:13:03.461Z,8.30
2019-04-05T11:15:33.366Z,8.30
2019-04-05T11:18:04.669Z,8.40
2019-04-05T11:20:34.729Z,8.40
2019-04-05T11:23:04.523Z,8.40
2019-04-05T11:25:34.929Z,8.50
2019-04-05T11:28:04.620Z,8.50
2019-04-05T11:30:45.055Z,8.60
2019-04-05T11:33:14.761Z,8.70
2019-04-05T11:35:45.040Z,8.80
2019-04-05T11:38:15.534Z,8.80
2019-04-05T11:40:46.674Z,8.90
2019-04-05T11:43:17.772Z,9.00
2019-04-05T11:45:55.576Z,9.00
2019-04-05T11:48:25.689Z,9.10
2019-04-05T11:50:56.014Z,9.20
2019-04-05T11:53:26.241Z,9.30
2019-04-05T11:55:56.144Z,9.40
2019-04-05T11:58:26.345Z,9.50
2019-04-05T12:01:01.369Z,9.50
2019-04-05T12:03:31.319Z,9.60
2019-04-05T12:06:00.865Z,9.60
2019-04-05T12:08:30.876Z,9.70
2019-04-05T12:11:00.763Z,9.80
2019-04-05T12:13:30.920Z,9.70
2019-04-05T12:16:00.477Z,9.80
2019-04-05T12:18:30.338Z,9.80
2019-04-05T12:21:00.726Z,9.80
2019-04-05T12:23:33.375Z,9.90
2019-04-05T12:26:04.702Z,10.00
2019-04-05T12:28:33.697Z,10.00
2019-04-05T12:31:05.073Z,10.00
2019-04-05T12:33:34.629Z,10.00
2019-04-05T12:36:05.108Z,10.00
2019-04-05T12:38:34.673Z,10.10
2019-04-05T12:41:04.818Z,10.10
2019-04-05T12:43:34.457Z,10.10
2019-04-05T12:46:04.820Z,10.00
2019-04-05T12:48:34.813Z,10.00
2019-04-05T12:51:05.702Z,9.90
2019-04-05T12:53:35.517Z,10.00
2019-04-05T12:56:11.582Z,10.00
2019-04-05T12:58:41.133Z,10.10
2019-04-05T13:01:11.000Z,10.10
2019-04-05T13:03:40.641Z,10.10
2019-04-05T13:06:16.769Z,10.00
2019-04-05T13:08:46.361Z,9.90
2019-04-05T13:13:52.390Z,9.80
2019-04-05T13:16:22.243Z,9.80
2019-04-05T13:18:52.060Z,9.90
2019-04-05T13:21:33.982Z,9.90
2019-04-05T13:24:04.621Z,9.90
2019-04-05T13:26:36.782Z,9.90
2019-04-05T13:29:06.913Z,9.90
2019-04-05T13:31:36.472Z,9.90
2019-04-05T13:34:06.431Z,9.80
2019-04-05T13:36:36.032Z,9.70
2019-04-05T13:39:07.738Z,9.60
2019-04-05T13:41:37.984Z,9.60
2019-04-05T13:44:07.632Z,9.60
2019-04-05T13:46:39.097Z,9.60
2019-04-05T13:49:10.570Z,9.60
2019-04-05T13:51:42.016Z,9.60
2019-04-05T13:54:11.500Z,9.60
2019-04-05T13:56:48.132Z,9.60
2019-04-05T13:59:17.686Z,9.50
2019-04-05T14:01:50.717Z,9.60
2019-04-05T14:04:20.652Z,9.60
2019-04-05T14:06:53.206Z,9.70
2019-04-05T14:09:21.673Z,9.70
2019-04-05T14:11:52.563Z,9.80
2019-04-05T14:14:22.109Z,9.80
2019-04-05T14:16:53.902Z,9.80
2019-04-05T14:19:23.164Z,9.80
2019-04-05T14:21:53.550Z,9.80
2019-04-05T14:24:23.899Z,9.80
2019-04-05T14:26:54.237Z,9.80
2019-04-05T14:29:24.260Z,9.80
2019-04-05T14:31:54.065Z,9.80
2019-04-05T14:34:24.559Z,9.80
2019-04-05T14:36:54.536Z,9.90
2019-04-05T14:39:24.417Z,9.80
2019-04-05T14:41:54.243Z,9.80
2019-04-05T14:44:24.273Z,9.80
2019-04-05T14:46:55.856Z,9.80
2019-04-05T14:49:26.446Z,9.80
2019-04-05T14:52:00.739Z,9.80
2019-04-05T14:54:30.140Z,9.80
2019-04-05T14:57:13.404Z,9.80
2019-04-05T14:59:43.288Z,9.80
2019-04-05T15:02:12.828Z,9.80
2019-04-05T15:04:42.701Z,9.80
2019-04-05T15:07:12.519Z,9.80
2019-04-05T15:09:42.062Z,9.80
2019-04-05T15:12:12.173Z,9.70
2019-04-05T15:14:47.477Z,9.60
2019-04-05T15:17:17.935Z,9.60
2019-04-05T15:19:47.916Z,9.60
2019-04-05T15:22:17.729Z,9.60
2019-04-05T15:24:50.280Z,9.60
2019-04-05T15:27:21.725Z,9.50
2019-04-05T15:29:51.125Z,9.50
2019-04-05T15:32:21.069Z,9.50
2019-04-05T15:34:50.985Z,9.50
2019-04-05T15:37:20.788Z,9.50
2019-04-05T15:39:50.385Z,9.50
2019-04-05T15:42:20.209Z,9.50
2019-04-05T15:44:50.148Z,9.50
2019-04-05T15:47:23.215Z,9.50
2019-04-05T15:49:51.929Z,9.50
2019-04-05T15:52:23.244Z,9.50
2019-04-05T15:54:52.836Z,9.50
2019-04-05T15:57:22.656Z,9.50
2019-04-05T15:59:52.492Z,9.50
2019-04-05T16:02:22.288Z,9.50
2019-04-05T16:04:52.064Z,9.50
2019-04-05T16:07:22.033Z,9.50
2019-04-05T16:09:52.333Z,9.50
2019-04-05T16:12:21.883Z,9.50
2019-04-05T16:14:51.440Z,9.40
2019-04-05T16:17:20.984Z,9.40
2019-04-05T16:19:50.912Z,9.40
2019-04-05T16:22:30.857Z,9.40
2019-04-05T16:24:52.344Z,9.40
2019-04-05T16:27:22.400Z,9.40
2019-04-05T16:29:52.268Z,9.30
2019-04-05T16:32:22.097Z,9.30
2019-04-05T16:34:51.640Z,9.30
2019-04-05T16:37:21.198Z,9.30
2019-04-05T16:39:50.764Z,9.30
2019-04-05T16:42:20.408Z,9.30
2019-04-05T16:44:50.306Z,9.30
2019-04-05T16:47:20.523Z,9.30
2019-04-05T16:49:50.077Z,9.30
2019-04-05T16:52:19.681Z,9.30
2019-04-05T16:54:49.318Z,9.30
2019-04-05T16:57:19.144Z,9.30
2019-04-05T16:59:48.708Z,9.30
2019-04-05T17:02:18.664Z,9.40
2019-04-05T17:04:48.201Z,9.50
2019-04-05T17:07:17.764Z,9.50
2019-04-05T17:09:47.692Z,9.50
2019-04-05T17:12:17.237Z,9.50
2019-04-05T17:14:46.933Z,9.50
2019-04-05T17:17:16.788Z,9.50
2019-04-05T17:19:46.749Z,9.50
2019-04-05T17:22:17.218Z,9.50
2019-04-05T17:24:47.685Z,9.50
2019-04-05T17:27:17.613Z,9.40
2019-04-05T17:29:47.514Z,9.40
2019-04-05T17:32:17.424Z,9.40
2019-04-05T17:34:47.477Z,9.40
2019-04-05T17:37:27.976Z,9.40
2019-04-05T17:39:58.188Z,9.40
2019-04-05T17:42:27.825Z,9.50
2019-04-05T17:44:57.641Z,9.50
2019-04-05T17:47:27.269Z,9.50
2019-04-05T17:49:57.184Z,9.50
2019-04-05T17:52:27.277Z,9.50
2019-04-05T17:54:56.820Z,9.50
2019-04-05T17:57:27.013Z,9.50
2019-04-05T17:59:56.856Z,9.40
2019-04-05T18:02:27.200Z,9.40
2019-04-05T18:04:56.832Z,9.30
2019-04-05T18:07:26.662Z,9.40
2019-04-05T18:10:10.573Z,9.40
2019-04-05T18:12:40.221Z,9.40
2019-04-05T18:15:10.417Z,9.50
2019-04-05T18:17:40.211Z,9.40
2019-04-05T18:20:10.639Z,9.50
2019-04-05T18:22:40.473Z,9.50
2019-04-05T18:25:14.011Z,9.50
2019-04-05T18:27:49.317Z,9.50
2019-04-05T18:30:18.891Z,9.50
2019-04-05T18:32:48.439Z,9.50
2019-04-05T18:35:18.232Z,9.50
2019-04-05T18:37:48.130Z,9.50
2019-04-05T18:40:17.759Z,9.50
2019-04-05T18:42:47.393Z,9.40
2019-04-05T18:45:16.998Z,9.40
2019-04-05T18:47:46.793Z,9.40
2019-04-05T18:50:16.795Z,9.40
2019-04-05T18:52:46.352Z,9.40
2019-04-05T18:55:15.916Z,9.40
2019-04-05T18:57:45.690Z,9.40
2019-04-05T19:00:15.320Z,9.40
2019-04-05T19:02:45.796Z,9.50
2019-04-05T19:05:15.869Z,9.30
2019-04-05T19:07:45.504Z,9.30
2019-04-05T19:10:15.288Z,9.30
2019-04-05T19:12:45.290Z,9.20
2019-04-05T19:15:15.348Z,9.20
2019-04-05T19:17:45.533Z,9.20
2019-04-05T19:20:15.336Z,9.20
2019-04-05T19:22:51.724Z,9.20
2019-04-05T19:25:21.296Z,9.20
2019-04-05T19:27:51.229Z,9.30
2019-04-05T19:50:31.517Z,9.30
2019-04-05T19:53:01.156Z,9.30
2019-04-05T19:55:31.032Z,9.30
2019-04-05T19:58:00.596Z,9.30
2019-04-05T20:00:30.553Z,9.30
2019-04-05T20:03:00.168Z,9.30
2019-04-05T20:05:29.733Z,9.30
2019-04-05T20:07:59.300Z,9.30
2019-04-05T20:10:29.157Z,9.30
2019-04-05T20:12:58.725Z,9.30
2019-04-05T20:15:28.351Z,9.30
2019-04-05T20:17:57.901Z,9.20
2019-04-05T20:20:27.472Z,9.20
2019-04-05T20:22:57.303Z,9.20
2019-04-05T20:25:26.889Z,9.20
2019-04-05T20:27:56.428Z,9.20
2019-04-05T20:30:25.977Z,9.20
2019-04-05T20:32:55.552Z,9.20
2019-04-05T20:35:25.444Z,9.20
2019-04-05T20:37:54.993Z,9.10
2019-04-05T20:40:24.626Z,9.10
2019-04-05T20:42:54.189Z,9.10
2019-04-05T20:45:24.108Z,9.20
2019-04-05T20:47:53.985Z,9.20
2019-04-05T20:50:23.900Z,9.20
2019-04-05T20:52:53.844Z,9.20
2019-04-05T20:55:23.638Z,9.20
2019-04-05T20:57:53.183Z,9.20
2019-04-05T21:00:22.820Z,9.20
2019-04-05T21:02:52.790Z,9.20
2019-04-05T21:05:25.578Z,9.20
2019-04-05T21:07:54.431Z,9.20
2019-04-05T21:10:24.259Z,9.20
2019-04-05T21:12:53.909Z,9.20
2019-04-05T21:15:24.060Z,9.20
2019-04-05T21:17:53.604Z,9.20
2019-04-05T21:20:23.170Z,9.20
2019-04-05T21:22:52.732Z,9.20
2019-04-05T21:25:22.320Z,9.20
2019-04-05T21:27:51.889Z,9.20
2019-04-05T21:30:22.104Z,9.20
2019-04-05T21:32:52.021Z,9.20
2019-04-05T21:35:21.569Z,9.20
2019-04-05T21:37:51.142Z,9.20
2019-04-05T21:40:20.780Z,9.20
2019-04-05T21:42:50.354Z,9.20
2019-04-05T21:45:20.265Z,9.20
2019-04-05T21:48:02.248Z,9.20
2019-04-05T21:50:31.790Z,9.20
2019-04-05T21:53:01.673Z,9.20
2019-04-05T21:55:31.235Z,9.20
2019-04-05T21:58:01.092Z,9.20
2019-04-05T22:00:40.544Z,9.20
2019-04-05T22:03:10.468Z,9.20
2019-04-05T22:05:40.057Z,9.20
2019-04-05T22:09:06.253Z,9.20
2019-04-05T22:11:35.799Z,9.20
2019-04-05T22:14:05.861Z,9.20
2019-04-05T22:16:35.711Z,9.20
2019-04-05T22:19:05.342Z,9.20
2019-04-05T22:21:34.891Z,9.20
2019-04-05T22:24:22.242Z,9.20
2019-04-05T22:26:51.813Z,9.20
2019-04-05T22:29:28.112Z,9.20
2019-04-05T22:31:57.944Z,9.20
2019-04-05T22:34:27.501Z,9.20
2019-04-05T22:36:57.341Z,9.20
2019-04-05T22:39:27.260Z,9.20
2019-04-05T22:41:56.830Z,9.20
2019-04-05T22:44:37.455Z,9.10
2019-04-05T22:46:58.536Z,9.00
2019-04-05T22:49:28.348Z,9.10
2019-04-05T22:51:57.919Z,9.10
2019-04-05T22:54:27.459Z,9.10
2019-04-05T22:56:57.102Z,9.00
2019-04-05T22:59:26.665Z,9.10
2019-04-05T23:01:56.473Z,9.10
2019-04-05T23:04:26.041Z,9.10
2019-04-05T23:06:56.201Z,9.10
2019-04-05T23:09:26.144Z,9.10
2019-04-05T23:11:56.061Z,9.20
2019-04-05T23:14:25.853Z,9.20
2019-04-05T23:16:55.480Z,9.20
2019-04-05T23:19:25.035Z,9.20
2019-04-05T23:21:54.597Z,9.20
2019-04-05T23:24:29.205Z,9.20
2019-04-05T23:26:59.293Z,9.20
2019-04-05T23:29:28.886Z,9.10
2019-04-05T23:31:58.726Z,9.20
2019-04-05T23:34:28.531Z,9.20
2019-04-05T23:36:58.337Z,9.20
2019-04-05T23:39:27.884Z,9.20
2019-04-05T23:41:57.725Z,9.20
2019-04-05T23:44:27.375Z,9.20
2019-04-05T23:46:56.924Z,9.20
2019-04-05T23:49:26.477Z,9.20
2019-04-05T23:51:56.384Z,9.20
2019-04-05T23:54:26.149Z,9.20
2019-04-05T23:56:55.721Z,9.20
2019-04-05T23:59:26.061Z,9.20
